createdAt,value
2019-05-19T00:00:31.408Z,29.23
2019-05-19T00:01:57.432Z,35.87
2019-05-19T00:03:23.015Z,38.00
2019-05-19T00:04:49.017Z,38.70
2019-05-19T00:06:14.692Z,46.60
2019-05-19T00:07:40.719Z,44.43
2019-05-19T00:09:07.446Z,43.63
2019-05-19T00:10:33.438Z,39.60
2019-05-19T00:11:59.149Z,40.00
2019-05-19T00:13:25.203Z,39.90
2019-05-19T00:14:50.846Z,39.77
2019-05-19T00:16:17.080Z,33.60
2019-05-19T00:17:42.554Z,40.73
2019-05-19T00:19:08.691Z,30.13
2019-05-19T00:20:34.341Z,31.27
2019-05-19T00:22:00.463Z,39.23
2019-05-19T00:23:26.007Z,41.93
2019-05-19T00:24:52.064Z,33.10
2019-05-19T00:26:17.696Z,40.13
2019-05-19T00:27:43.704Z,43.33
2019-05-19T00:29:09.628Z,54.53
2019-05-19T00:30:35.695Z,36.83
2019-05-19T00:32:01.299Z,30.13
2019-05-19T00:33:27.415Z,52.00
2019-05-19T00:34:52.895Z,32.73
2019-05-19T00:36:19.690Z,32.83
2019-05-19T00:37:45.390Z,45.27
2019-05-19T00:39:11.397Z,41.30
2019-05-19T00:40:37.110Z,37.77
2019-05-19T00:42:03.358Z,37.97
2019-05-19T00:43:28.911Z,27.97
2019-05-19T00:44:55.031Z,41.60
2019-05-19T00:46:20.651Z,34.73
2019-05-19T00:47:46.702Z,37.63
2019-05-19T00:49:12.357Z,39.53
2019-05-19T00:50:38.447Z,39.53
2019-05-19T00:52:04.191Z,39.30
2019-05-19T00:53:30.303Z,30.53
2019-05-19T00:54:55.848Z,35.67
2019-05-19T00:56:22.756Z,31.87
2019-05-19T00:57:48.565Z,47.50
2019-05-19T00:59:15.078Z,49.50
2019-05-19T01:00:40.680Z,36.40
2019-05-19T01:02:07.309Z,28.70
2019-05-19T01:03:32.771Z,35.60
2019-05-19T01:04:58.824Z,47.30
2019-05-19T01:06:24.299Z,30.53
2019-05-19T01:07:50.410Z,23.60
2019-05-19T01:09:15.893Z,34.40
2019-05-19T01:10:41.974Z,52.53
2019-05-19T01:12:07.682Z,41.17
2019-05-19T01:13:33.803Z,34.73
2019-05-19T01:14:59.264Z,29.40
2019-05-19T01:16:25.315Z,27.80
2019-05-19T01:17:52.325Z,41.53
2019-05-19T01:19:18.449Z,35.07
2019-05-19T01:20:44.195Z,25.00
2019-05-19T01:22:11.109Z,33.90
2019-05-19T01:23:36.536Z,33.43
2019-05-19T01:25:02.614Z,30.97
2019-05-19T01:26:28.104Z,30.07
2019-05-19T01:27:54.143Z,29.33
2019-05-19T01:29:19.741Z,30.00
2019-05-19T01:30:45.889Z,41.27
2019-05-19T01:32:11.460Z,40.40
2019-05-19T01:33:37.616Z,45.37
2019-05-19T01:35:03.269Z,43.70
2019-05-19T01:36:29.301Z,38.73
2019-05-19T01:37:54.739Z,35.83
2019-05-19T01:39:20.826Z,32.60
2019-05-19T01:40:46.411Z,42.27
2019-05-19T01:42:12.464Z,27.90
2019-05-19T01:43:38.109Z,25.30
2019-05-19T01:45:04.423Z,34.93
2019-05-19T01:46:30.136Z,41.80
2019-05-19T01:47:56.139Z,31.67
2019-05-19T01:49:21.852Z,43.90
2019-05-19T01:50:47.852Z,30.53
2019-05-19T01:52:13.363Z,38.33
2019-05-19T01:53:39.408Z,27.47
2019-05-19T01:55:05.022Z,42.33
2019-05-19T01:56:31.047Z,34.10
2019-05-19T01:57:56.519Z,35.73
2019-05-19T01:59:22.691Z,32.30
2019-05-19T02:00:48.235Z,34.37
2019-05-19T02:02:14.267Z,31.57
2019-05-19T02:03:39.887Z,31.13
2019-05-19T02:05:06.096Z,46.23
2019-05-19T02:06:31.644Z,51.83
2019-05-19T02:07:57.796Z,40.27
2019-05-19T02:09:23.220Z,34.80
2019-05-19T02:10:49.255Z,50.97
2019-05-19T02:12:14.757Z,35.93
2019-05-19T02:13:40.780Z,30.13
2019-05-19T02:15:06.729Z,38.30
2019-05-19T02:16:32.724Z,27.73
2019-05-19T02:17:58.219Z,40.53
2019-05-19T02:19:24.232Z,38.37
2019-05-19T02:20:49.681Z,31.67
2019-05-19T02:22:15.715Z,38.00
2019-05-19T02:23:41.219Z,53.07
2019-05-19T02:25:07.443Z,33.60
2019-05-19T02:26:32.913Z,36.50
2019-05-19T02:27:58.932Z,38.63
2019-05-19T02:29:24.389Z,35.63
2019-05-19T02:30:50.364Z,52.43
2019-05-19T02:32:15.885Z,47.30
2019-05-19T02:33:41.886Z,38.33
2019-05-19T02:35:07.858Z,36.57
2019-05-19T02:36:34.274Z,42.67
2019-05-19T02:37:59.813Z,32.50
2019-05-19T02:39:25.862Z,37.87
2019-05-19T02:40:55.345Z,35.23
2019-05-19T02:42:23.400Z,35.73
2019-05-19T02:43:50.819Z,41.87
2019-05-19T02:45:17.324Z,25.93
2019-05-19T02:46:43.691Z,30.70
2019-05-19T02:48:12.087Z,50.70
2019-05-19T02:49:38.227Z,40.23
2019-05-19T02:51:05.977Z,38.43
2019-05-19T02:52:33.068Z,48.63
2019-05-19T02:54:01.405Z,39.57
2019-05-19T02:55:27.556Z,46.03
2019-05-19T02:56:54.145Z,55.13
2019-05-19T02:58:20.631Z,31.73
2019-05-19T02:59:47.488Z,35.47
2019-05-19T03:01:12.948Z,45.83
2019-05-19T03:02:38.994Z,43.07
2019-05-19T03:04:04.600Z,34.37
2019-05-19T03:05:30.692Z,40.83
2019-05-19T03:06:56.260Z,31.07
2019-05-19T03:08:22.364Z,40.20
2019-05-19T03:09:47.829Z,35.20
2019-05-19T03:11:13.889Z,34.33
2019-05-19T03:12:39.472Z,41.93
2019-05-19T03:14:05.493Z,45.17
2019-05-19T03:15:30.959Z,40.27
2019-05-19T03:16:56.989Z,34.73
2019-05-19T03:18:22.492Z,24.27
2019-05-19T03:19:48.488Z,28.27
2019-05-19T03:21:14.072Z,31.17
2019-05-19T03:22:40.044Z,37.80
2019-05-19T03:24:05.761Z,28.50
2019-05-19T03:25:31.787Z,35.53
2019-05-19T03:26:57.282Z,35.57
2019-05-19T03:28:23.313Z,31.20
2019-05-19T03:29:53.856Z,26.33
2019-05-19T03:31:32.385Z,34.30
2019-05-19T03:33:01.004Z,20.30
2019-05-19T03:34:27.539Z,29.80
2019-05-19T03:35:52.960Z,29.00
2019-05-19T03:37:18.970Z,37.10
2019-05-19T03:38:44.602Z,22.50
2019-05-19T03:40:22.894Z,19.60
2019-05-19T03:41:48.382Z,20.50
2019-05-19T03:43:14.473Z,20.23
2019-05-19T03:44:39.973Z,17.33
2019-05-19T03:46:05.968Z,21.53
2019-05-19T03:47:31.437Z,13.37
2019-05-19T03:48:57.460Z,13.47
2019-05-19T03:50:22.923Z,14.10
2019-05-19T03:51:49.066Z,10.03
2019-05-19T03:53:14.483Z,13.53
2019-05-19T03:54:40.551Z,13.73
2019-05-19T03:56:06.161Z,11.07
2019-05-19T03:57:32.157Z,10.77
2019-05-19T03:58:57.633Z,7.90
2019-05-19T04:00:23.846Z,13.73
2019-05-19T04:01:49.335Z,13.47
2019-05-19T04:03:15.341Z,8.77
2019-05-19T04:04:40.804Z,12.20
2019-05-19T04:06:06.915Z,15.07
2019-05-19T04:07:32.442Z,8.00
2019-05-19T04:08:58.651Z,17.63
2019-05-19T04:10:24.085Z,9.77
2019-05-19T04:11:50.100Z,10.27
2019-05-19T04:13:15.564Z,8.23
2019-05-19T04:14:41.726Z,6.47
2019-05-19T04:16:07.210Z,14.97
2019-05-19T04:17:33.244Z,8.83
2019-05-19T04:19:01.173Z,5.27
2019-05-19T04:20:27.222Z,11.17
2019-05-19T04:21:52.695Z,6.10
2019-05-19T04:23:18.742Z,5.67
2019-05-19T04:24:45.935Z,8.27
2019-05-19T04:26:11.925Z,13.53
2019-05-19T04:27:37.611Z,8.00
2019-05-19T04:29:03.617Z,4.93
2019-05-19T04:30:29.172Z,9.87
2019-05-19T04:31:55.160Z,13.77
2019-05-19T04:33:20.719Z,22.50
2019-05-19T04:34:46.783Z,20.50
2019-05-19T04:36:12.366Z,24.67
2019-05-19T04:37:38.407Z,33.33
2019-05-19T04:39:04.344Z,23.07
2019-05-19T04:40:32.829Z,20.63
2019-05-19T04:41:58.381Z,23.10
2019-05-19T04:43:24.449Z,21.03
2019-05-19T04:44:50.040Z,27.23
2019-05-19T04:46:16.036Z,21.03
2019-05-19T04:47:41.465Z,33.20
2019-05-19T04:49:07.458Z,20.13
2019-05-19T04:50:33.039Z,25.83
2019-05-19T04:52:06.761Z,17.90
2019-05-19T04:53:26.264Z,13.27
2019-05-19T04:54:52.382Z,10.37
2019-05-19T04:56:19.883Z,14.40
2019-05-19T04:57:45.508Z,6.63
2019-05-19T04:59:10.927Z,10.20
2019-05-19T05:00:37.050Z,9.70
2019-05-19T05:02:05.826Z,9.40
2019-05-19T05:03:34.601Z,10.80
2019-05-19T05:05:00.467Z,12.83
2019-05-19T05:06:26.482Z,12.73
2019-05-19T05:07:51.923Z,15.37
2019-05-19T05:09:18.053Z,11.90
2019-05-19T05:10:43.591Z,12.30
2019-05-19T05:12:09.735Z,11.93
2019-05-19T05:13:35.268Z,7.03
2019-05-19T05:15:01.308Z,9.70
2019-05-19T05:16:26.748Z,10.50
2019-05-19T05:17:52.779Z,7.77
2019-05-19T05:19:18.232Z,11.27
2019-05-19T05:20:44.383Z,11.57
2019-05-19T05:22:21.334Z,11.03
2019-05-19T05:23:37.584Z,12.87
2019-05-19T05:25:03.305Z,21.00
2019-05-19T05:26:29.533Z,16.37
2019-05-19T05:27:54.972Z,20.30
2019-05-19T05:29:20.951Z,34.23
2019-05-19T05:30:46.443Z,33.13
2019-05-19T05:32:12.420Z,35.33
2019-05-19T05:33:37.979Z,25.75
2019-05-19T05:35:04.280Z,25.15
2019-05-19T05:36:29.764Z,20.40
2019-05-19T05:37:55.929Z,18.00
2019-05-19T05:39:21.477Z,21.20
2019-05-19T05:40:47.995Z,22.80
2019-05-19T05:42:13.454Z,20.20
2019-05-19T05:43:46.579Z,16.20
2019-05-19T05:45:12.404Z,15.80
2019-05-19T05:46:45.140Z,18.87
2019-05-19T05:48:14.164Z,17.27
2019-05-19T05:49:43.544Z,22.65
2019-05-19T05:51:12.372Z,37.47
2019-05-19T05:52:39.177Z,19.87
2019-05-19T05:54:06.227Z,21.10
2019-05-19T05:55:32.324Z,16.30
2019-05-19T05:56:57.839Z,24.17
2019-05-19T05:58:23.906Z,17.90
2019-05-19T05:59:49.428Z,29.47
2019-05-19T06:01:15.533Z,21.90
2019-05-19T06:02:41.009Z,26.53
2019-05-19T06:04:07.141Z,26.03
2019-05-19T06:05:32.636Z,30.90
2019-05-19T06:06:58.776Z,19.97
2019-05-19T06:08:24.293Z,27.30
2019-05-19T06:09:50.407Z,23.07
2019-05-19T06:11:15.928Z,24.40
2019-05-19T06:12:41.923Z,24.97
2019-05-19T06:14:07.639Z,32.73
2019-05-19T06:15:33.637Z,24.20
2019-05-19T06:16:59.276Z,23.20
2019-05-19T06:18:25.276Z,21.13
2019-05-19T06:19:50.768Z,15.00
2019-05-19T06:21:16.828Z,20.00
2019-05-19T06:22:54.989Z,24.63
2019-05-19T06:24:09.923Z,34.53
2019-05-19T06:25:35.730Z,25.87
2019-05-19T06:27:01.760Z,16.40
2019-05-19T06:28:27.253Z,28.17
2019-05-19T06:29:53.401Z,14.10
2019-05-19T06:31:18.913Z,24.00
2019-05-19T06:32:47.862Z,24.33
2019-05-19T06:34:13.349Z,28.83
2019-05-19T06:35:39.371Z,37.40
2019-05-19T06:37:05.145Z,39.53
2019-05-19T06:38:31.141Z,29.63
2019-05-19T06:39:56.651Z,29.77
2019-05-19T06:41:22.663Z,27.97
2019-05-19T06:42:48.311Z,31.93
2019-05-19T06:44:14.308Z,20.80
2019-05-19T06:45:39.796Z,28.20
2019-05-19T06:47:05.949Z,36.43
2019-05-19T06:48:31.373Z,30.00
2019-05-19T06:49:57.374Z,28.83
2019-05-19T06:51:22.815Z,33.07
2019-05-19T06:52:48.842Z,26.33
2019-05-19T06:54:14.271Z,35.20
2019-05-19T06:55:43.527Z,35.03
2019-05-19T06:57:09.181Z,36.50
2019-05-19T06:58:36.463Z,38.10
2019-05-19T07:00:01.929Z,39.87
2019-05-19T07:01:28.060Z,35.83
2019-05-19T07:02:53.562Z,21.33
2019-05-19T07:04:19.575Z,43.37
2019-05-19T07:05:45.033Z,26.67
2019-05-19T07:07:11.182Z,32.97
2019-05-19T07:08:36.794Z,41.73
2019-05-19T07:10:03.011Z,34.47
2019-05-19T07:11:30.408Z,29.10
2019-05-19T07:12:56.475Z,26.70
2019-05-19T07:14:23.143Z,25.67
2019-05-19T07:15:49.173Z,30.20
2019-05-19T07:17:14.633Z,27.50
2019-05-19T07:18:41.615Z,27.23
2019-05-19T07:20:22.378Z,28.83
2019-05-19T07:21:48.366Z,23.60
2019-05-19T07:23:27.231Z,28.40
2019-05-19T07:24:41.637Z,20.27
2019-05-19T07:26:09.779Z,21.53
2019-05-19T07:27:35.832Z,19.77
2019-05-19T07:29:01.390Z,21.20
2019-05-19T07:30:27.432Z,20.07
2019-05-19T07:31:52.944Z,16.07
2019-05-19T07:33:19.017Z,17.70
2019-05-19T07:34:44.507Z,14.87
2019-05-19T07:36:12.285Z,19.83
2019-05-19T07:37:39.159Z,25.83
2019-05-19T07:39:06.516Z,18.67
2019-05-19T07:40:32.057Z,18.10
2019-05-19T07:41:58.052Z,25.97
2019-05-19T07:43:23.672Z,19.63
2019-05-19T07:44:49.764Z,23.53
2019-05-19T07:46:15.214Z,24.00
2019-05-19T07:47:43.163Z,25.10
2019-05-19T07:49:11.362Z,31.80
2019-05-19T07:50:38.249Z,32.67
2019-05-19T07:52:04.082Z,26.07
2019-05-19T07:53:42.167Z,32.80
2019-05-19T07:54:57.247Z,19.60
2019-05-19T07:56:23.250Z,20.27
2019-05-19T07:57:48.763Z,13.40
2019-05-19T07:59:14.952Z,20.67
2019-05-19T08:00:40.544Z,31.77
2019-05-19T08:02:06.541Z,20.57
2019-05-19T08:03:32.095Z,19.37
2019-05-19T08:04:58.224Z,17.10
2019-05-19T08:06:23.853Z,15.83
2019-05-19T08:07:49.913Z,20.17
2019-05-19T08:09:15.407Z,17.53
2019-05-19T08:10:43.996Z,22.73
2019-05-19T08:12:09.565Z,19.10
2019-05-19T08:13:35.591Z,23.07
2019-05-19T08:15:01.023Z,25.30
2019-05-19T08:16:27.045Z,21.50
2019-05-19T08:17:52.930Z,20.03
2019-05-19T08:19:19.020Z,22.67
2019-05-19T08:20:44.645Z,17.97
2019-05-19T08:22:11.059Z,22.90
2019-05-19T08:23:36.644Z,28.50
2019-05-19T08:25:06.541Z,18.07
2019-05-19T08:26:32.128Z,19.67
2019-05-19T08:28:07.457Z,18.20
2019-05-19T08:29:25.472Z,16.87
2019-05-19T08:30:51.551Z,21.53
2019-05-19T08:32:17.124Z,27.10
2019-05-19T08:33:43.625Z,17.57
2019-05-19T08:35:09.132Z,23.60
2019-05-19T08:36:35.248Z,14.13
2019-05-19T08:38:00.831Z,20.60
2019-05-19T08:39:26.944Z,18.23
2019-05-19T08:40:52.469Z,31.80
2019-05-19T08:42:18.539Z,19.67
2019-05-19T08:43:44.182Z,19.27
2019-05-19T08:45:10.659Z,26.57
2019-05-19T08:46:36.161Z,17.53
2019-05-19T08:48:02.128Z,31.67
2019-05-19T08:49:27.686Z,19.30
2019-05-19T08:50:53.767Z,20.73
2019-05-19T08:52:19.234Z,23.43
2019-05-19T08:53:45.889Z,21.37
2019-05-19T08:55:11.771Z,17.77
2019-05-19T08:56:37.800Z,23.63
2019-05-19T08:58:03.394Z,21.90
2019-05-19T08:59:29.508Z,19.03
2019-05-19T09:00:54.964Z,25.33
2019-05-19T09:02:20.941Z,25.87
2019-05-19T09:03:46.446Z,22.20
2019-05-19T09:05:12.573Z,25.97
2019-05-19T09:06:38.031Z,25.23
2019-05-19T09:08:04.057Z,25.00
2019-05-19T09:09:32.511Z,24.40
2019-05-19T09:10:58.611Z,22.30
2019-05-19T09:12:24.085Z,24.13
2019-05-19T09:13:50.481Z,36.70
2019-05-19T09:15:19.052Z,21.27
2019-05-19T09:16:45.247Z,24.50
2019-05-19T09:18:10.825Z,26.67
2019-05-19T09:19:36.881Z,27.83
2019-05-19T09:21:02.340Z,26.33
2019-05-19T09:22:33.237Z,23.23
2019-05-19T09:23:58.936Z,31.90
2019-05-19T09:25:25.281Z,22.80
2019-05-19T09:26:51.022Z,19.53
2019-05-19T09:28:17.213Z,23.93
2019-05-19T09:29:44.363Z,21.27
2019-05-19T09:31:10.418Z,27.00
2019-05-19T09:32:36.092Z,26.57
2019-05-19T09:34:02.501Z,22.90
2019-05-19T09:35:28.083Z,23.50
2019-05-19T09:36:54.103Z,21.47
2019-05-19T09:38:19.575Z,29.67
2019-05-19T09:39:45.743Z,20.50
2019-05-19T09:41:11.225Z,29.17
2019-05-19T09:42:37.510Z,15.17
2019-05-19T09:44:03.372Z,15.77
2019-05-19T09:45:29.560Z,14.13
2019-05-19T09:46:55.108Z,15.07
2019-05-19T09:48:21.103Z,16.57
2019-05-19T09:49:46.764Z,8.80
2019-05-19T09:51:13.883Z,15.97
2019-05-19T09:52:42.713Z,15.43
2019-05-19T09:54:08.807Z,20.73
2019-05-19T09:55:34.384Z,16.50
2019-05-19T09:57:01.040Z,13.33
2019-05-19T09:58:26.520Z,15.50
2019-05-19T09:59:52.534Z,26.27
2019-05-19T10:01:17.999Z,9.10
2019-05-19T10:02:44.057Z,9.73
2019-05-19T10:04:09.545Z,12.43
2019-05-19T10:05:35.563Z,12.13
2019-05-19T10:07:01.521Z,14.60
2019-05-19T10:08:38.387Z,13.63
2019-05-19T10:10:09.543Z,8.50
2019-05-19T10:12:06.307Z,19.30
2019-05-19T10:13:37.702Z,14.23
2019-05-19T10:15:02.923Z,11.53
2019-05-19T10:16:29.443Z,7.13
2019-05-19T10:17:55.105Z,14.73
2019-05-19T10:19:21.408Z,17.00
2019-05-19T10:20:50.210Z,16.60
2019-05-19T10:22:15.144Z,9.13
2019-05-19T10:23:40.735Z,14.07
2019-05-19T10:25:21.598Z,6.63
2019-05-19T10:26:38.821Z,12.80
2019-05-19T10:28:05.122Z,15.03
2019-05-19T10:29:30.836Z,15.23
2019-05-19T10:30:57.087Z,17.77
2019-05-19T10:32:22.926Z,13.80
2019-05-19T10:33:49.489Z,12.80
2019-05-19T10:35:15.691Z,21.57
2019-05-19T10:36:42.187Z,7.90
2019-05-19T10:38:07.792Z,12.83
2019-05-19T10:39:34.094Z,13.57
2019-05-19T10:40:59.857Z,9.00
2019-05-19T10:42:26.622Z,15.23
2019-05-19T10:44:00.830Z,12.20
2019-05-19T10:45:27.258Z,15.60
2019-05-19T10:46:53.245Z,13.70
2019-05-19T10:48:19.363Z,12.30
2019-05-19T10:49:45.125Z,10.63
2019-05-19T10:51:11.183Z,2.73
2019-05-19T10:52:36.948Z,12.20
2019-05-19T10:54:03.382Z,6.47
2019-05-19T10:55:36.645Z,11.93
2019-05-19T10:56:57.230Z,10.03
2019-05-19T10:58:24.356Z,11.00
2019-05-19T10:59:50.800Z,12.83
2019-05-19T11:01:16.718Z,11.43
2019-05-19T11:02:42.819Z,8.37
2019-05-19T11:04:08.725Z,10.00
2019-05-19T11:05:34.821Z,13.73
2019-05-19T11:07:00.280Z,6.53
2019-05-19T11:08:26.600Z,5.47
2019-05-19T11:09:52.380Z,5.37
2019-05-19T11:11:19.008Z,9.10
2019-05-19T11:12:46.908Z,12.87
2019-05-19T11:14:12.300Z,8.60
2019-05-19T11:15:37.895Z,3.03
2019-05-19T11:17:06.368Z,9.33
2019-05-19T11:18:31.828Z,5.27
2019-05-19T11:19:57.836Z,10.30
2019-05-19T11:21:23.260Z,11.17
2019-05-19T11:22:49.339Z,10.30
2019-05-19T11:24:14.909Z,7.83
2019-05-19T11:25:50.994Z,16.20
2019-05-19T11:27:10.066Z,9.47
2019-05-19T11:28:35.782Z,6.42
2019-05-19T11:30:01.279Z,14.63
2019-05-19T11:31:27.436Z,11.73
2019-05-19T11:32:52.980Z,8.60
2019-05-19T11:34:20.538Z,8.83
2019-05-19T11:35:46.094Z,6.57
2019-05-19T11:37:12.260Z,6.40
2019-05-19T11:38:37.902Z,11.00
2019-05-19T11:40:04.033Z,14.20
2019-05-19T11:41:29.490Z,2.63
2019-05-19T11:42:55.547Z,8.50
2019-05-19T11:44:21.064Z,5.83
2019-05-19T11:45:47.168Z,7.70
2019-05-19T11:47:12.637Z,5.87
2019-05-19T11:48:38.643Z,5.10
2019-05-19T11:50:04.203Z,5.73
2019-05-19T11:51:31.455Z,12.40
2019-05-19T11:52:56.968Z,17.97
2019-05-19T11:54:23.188Z,13.33
2019-05-19T11:55:49.207Z,3.90
2019-05-19T11:57:15.220Z,8.60
2019-05-19T11:58:44.111Z,5.33
2019-05-19T12:00:10.358Z,8.30
2019-05-19T12:01:35.900Z,3.73
2019-05-19T12:03:02.119Z,9.10
2019-05-19T12:04:27.704Z,12.97
2019-05-19T12:05:53.995Z,5.33
2019-05-19T12:07:19.485Z,8.57
2019-05-19T12:08:45.463Z,15.65
2019-05-19T12:10:11.381Z,9.23
2019-05-19T12:11:37.414Z,8.40
2019-05-19T12:13:02.831Z,7.10
2019-05-19T12:14:28.883Z,11.60
2019-05-19T12:15:56.923Z,11.40
2019-05-19T12:17:22.420Z,6.33
2019-05-19T12:18:47.985Z,8.23
2019-05-19T12:20:14.369Z,8.87
2019-05-19T12:21:39.810Z,9.67
2019-05-19T12:23:06.162Z,5.60
2019-05-19T12:24:31.764Z,4.73
2019-05-19T12:25:58.299Z,9.07
2019-05-19T12:27:24.115Z,7.60
2019-05-19T12:28:50.152Z,6.70
2019-05-19T12:30:20.679Z,8.03
2019-05-19T12:31:49.584Z,8.80
2019-05-19T12:33:15.026Z,12.40
2019-05-19T12:34:41.022Z,8.97
2019-05-19T12:36:06.688Z,12.43
2019-05-19T12:37:32.713Z,9.83
2019-05-19T12:38:58.174Z,11.50
2019-05-19T12:40:26.799Z,4.23
2019-05-19T12:41:52.266Z,10.57
2019-05-19T12:43:21.067Z,10.27
2019-05-19T12:44:46.607Z,9.23
2019-05-19T12:46:23.872Z,9.30
2019-05-19T12:47:52.134Z,14.03
2019-05-19T12:49:18.173Z,19.10
2019-05-19T12:50:43.642Z,14.27
2019-05-19T12:52:09.707Z,6.33
2019-05-19T12:53:35.156Z,10.73
2019-05-19T12:55:01.183Z,9.33
2019-05-19T12:56:39.042Z,9.73
2019-05-19T12:57:54.321Z,6.80
2019-05-19T12:59:19.765Z,8.20
2019-05-19T13:00:45.754Z,8.47
2019-05-19T13:02:11.349Z,9.07
2019-05-19T13:03:37.431Z,9.47
2019-05-19T13:05:05.583Z,11.87
2019-05-19T13:06:30.731Z,11.50
2019-05-19T13:07:56.398Z,9.87
2019-05-19T13:09:22.743Z,12.13
2019-05-19T13:10:48.182Z,15.83
2019-05-19T13:12:14.248Z,8.53
2019-05-19T13:13:39.724Z,16.60
2019-05-19T13:15:06.399Z,21.97
2019-05-19T13:16:31.959Z,18.63
2019-05-19T13:17:57.988Z,13.97
2019-05-19T13:19:23.503Z,9.40
2019-05-19T13:20:49.524Z,11.57
2019-05-19T13:22:14.985Z,12.93
2019-05-19T13:23:43.090Z,14.10
2019-05-19T13:25:08.833Z,12.37
2019-05-19T13:26:34.894Z,6.30
2019-05-19T13:28:00.964Z,11.63
2019-05-19T13:29:27.051Z,13.77
2019-05-19T13:30:52.515Z,5.57
2019-05-19T13:32:18.523Z,5.90
2019-05-19T13:33:43.995Z,9.93
2019-05-19T13:35:10.245Z,6.13
2019-05-19T13:36:35.741Z,10.73
2019-05-19T13:38:01.855Z,7.00
2019-05-19T13:39:27.424Z,7.00
2019-05-19T13:40:53.459Z,9.90
2019-05-19T13:42:18.912Z,9.40
2019-05-19T13:43:45.010Z,4.37
2019-05-19T13:45:13.561Z,11.63
2019-05-19T13:46:39.635Z,8.53
2019-05-19T13:48:05.259Z,11.83
2019-05-19T13:49:31.406Z,19.67
2019-05-19T13:50:56.833Z,6.47
2019-05-19T13:52:22.853Z,6.83
2019-05-19T13:53:48.295Z,8.23
2019-05-19T13:55:14.435Z,10.60
2019-05-19T13:56:39.884Z,8.87
2019-05-19T13:58:05.940Z,6.40
2019-05-19T13:59:31.535Z,7.17
2019-05-19T14:00:57.704Z,8.93
2019-05-19T14:02:23.239Z,6.87
2019-05-19T14:03:52.017Z,9.80
2019-05-19T14:05:16.874Z,13.40
2019-05-19T14:06:42.858Z,13.43
2019-05-19T14:08:08.415Z,11.67
2019-05-19T14:09:34.478Z,8.10
2019-05-19T14:10:59.947Z,11.80
2019-05-19T14:12:26.065Z,12.37
2019-05-19T14:13:51.575Z,15.50
2019-05-19T14:15:17.645Z,10.03
2019-05-19T14:16:45.229Z,13.43
2019-05-19T14:18:11.241Z,9.60
2019-05-19T14:19:36.756Z,11.80
2019-05-19T14:21:02.724Z,14.53
2019-05-19T14:22:28.186Z,11.17
2019-05-19T14:23:54.280Z,14.40
2019-05-19T14:25:19.808Z,9.73
2019-05-19T14:26:45.795Z,18.90
2019-05-19T14:28:11.299Z,14.63
2019-05-19T14:29:37.408Z,11.97
2019-05-19T14:31:02.950Z,20.53
2019-05-19T14:32:29.117Z,21.93
2019-05-19T14:33:54.601Z,14.00
2019-05-19T14:35:20.660Z,13.70
2019-05-19T14:36:46.036Z,9.13
2019-05-19T14:38:12.080Z,10.60
2019-05-19T14:39:37.556Z,21.50
2019-05-19T14:41:03.739Z,14.80
2019-05-19T14:42:46.672Z,10.07
2019-05-19T14:44:12.224Z,10.70
2019-05-19T14:45:38.268Z,14.13
2019-05-19T14:47:03.821Z,20.27
2019-05-19T14:48:29.878Z,13.53
2019-05-19T14:49:55.423Z,20.73
2019-05-19T14:51:21.618Z,12.73
2019-05-19T14:52:47.467Z,12.07
2019-05-19T14:54:13.503Z,19.53
2019-05-19T14:55:39.021Z,17.37
2019-05-19T14:57:05.168Z,13.87
2019-05-19T14:58:30.675Z,11.00
2019-05-19T14:59:56.699Z,14.67
2019-05-19T15:01:22.131Z,17.13
2019-05-19T15:02:48.155Z,22.27
2019-05-19T15:04:13.898Z,10.17
2019-05-19T15:05:39.967Z,11.67
2019-05-19T15:07:05.702Z,14.70
2019-05-19T15:08:31.666Z,9.40
2019-05-19T15:09:57.312Z,17.23
2019-05-19T15:11:23.413Z,12.10
2019-05-19T15:12:48.840Z,10.43
2019-05-19T15:14:17.820Z,8.57
2019-05-19T15:15:43.408Z,11.13
2019-05-19T15:17:09.427Z,14.83
2019-05-19T15:18:34.876Z,6.23
2019-05-19T15:20:00.928Z,10.47
2019-05-19T15:21:26.543Z,15.20
2019-05-19T15:22:52.647Z,6.53
2019-05-19T15:24:18.115Z,6.20
2019-05-19T15:25:44.183Z,8.30
2019-05-19T15:27:09.791Z,10.73
2019-05-19T15:28:35.852Z,13.70
2019-05-19T15:30:12.246Z,9.57
2019-05-19T15:31:29.551Z,5.80
2019-05-19T15:32:56.105Z,13.37
2019-05-19T15:34:22.271Z,11.43
2019-05-19T15:35:47.785Z,13.60
2019-05-19T15:37:13.824Z,3.23
2019-05-19T15:38:39.355Z,9.63
2019-05-19T15:40:06.062Z,8.40
2019-05-19T15:41:31.588Z,11.07
2019-05-19T15:42:57.647Z,11.07
2019-05-19T15:44:28.124Z,11.93
2019-05-19T15:45:54.219Z,12.23
2019-05-19T15:47:19.915Z,7.83
2019-05-19T15:48:46.011Z,10.07
2019-05-19T15:50:11.676Z,14.83
2019-05-19T15:51:39.245Z,9.53
2019-05-19T15:53:07.483Z,13.47
2019-05-19T15:54:37.459Z,14.90
2019-05-19T15:56:05.872Z,12.10
2019-05-19T15:57:32.105Z,8.33
2019-05-19T15:59:00.249Z,13.37
2019-05-19T16:00:26.296Z,7.93
2019-05-19T16:01:51.824Z,13.27
2019-05-19T16:03:20.672Z,15.37
2019-05-19T16:04:49.208Z,16.62
2019-05-19T16:06:15.385Z,9.30
2019-05-19T16:07:40.917Z,9.20
2019-05-19T16:09:07.985Z,9.23
2019-05-19T16:10:34.693Z,12.97
2019-05-19T16:12:00.724Z,9.00
2019-05-19T16:13:26.427Z,13.63
2019-05-19T16:14:53.507Z,12.27
2019-05-19T16:16:20.436Z,19.90
2019-05-19T16:17:46.575Z,14.97
2019-05-19T16:19:12.122Z,14.63
2019-05-19T16:20:38.136Z,17.10
2019-05-19T16:22:06.673Z,14.80
2019-05-19T16:23:33.662Z,10.63
2019-05-19T16:24:59.173Z,19.80
2019-05-19T16:26:25.147Z,8.73
2019-05-19T16:27:50.631Z,12.23
2019-05-19T16:29:16.631Z,11.50
2019-05-19T16:30:48.446Z,13.33
2019-05-19T16:32:14.550Z,12.20
2019-05-19T16:33:40.083Z,8.73
2019-05-19T16:35:07.360Z,26.10
2019-05-19T16:36:34.376Z,14.43
2019-05-19T16:38:02.243Z,12.17
2019-05-19T16:39:27.995Z,11.30
2019-05-19T16:40:54.008Z,17.13
2019-05-19T16:42:19.460Z,27.07
2019-05-19T16:43:45.587Z,13.57
2019-05-19T16:45:13.600Z,15.43
2019-05-19T16:46:39.763Z,19.70
2019-05-19T16:48:06.771Z,14.60
2019-05-19T16:49:32.768Z,16.73
2019-05-19T16:50:58.265Z,25.30
2019-05-19T16:52:24.317Z,17.83
2019-05-19T16:53:51.994Z,14.53
2019-05-19T16:55:25.908Z,18.50
2019-05-19T16:56:51.380Z,21.67
2019-05-19T16:58:21.097Z,16.50
2019-05-19T16:59:44.787Z,14.60
2019-05-19T17:01:10.833Z,18.03
2019-05-19T17:02:36.387Z,19.80
2019-05-19T17:04:02.469Z,24.57
2019-05-19T17:05:28.011Z,14.73
2019-05-19T17:06:54.367Z,24.57
2019-05-19T17:08:19.895Z,14.90
2019-05-19T17:09:46.001Z,9.37
2019-05-19T17:11:18.422Z,28.00
2019-05-19T17:12:39.155Z,25.77
2019-05-19T17:14:04.765Z,16.27
2019-05-19T17:15:30.911Z,16.83
2019-05-19T17:16:56.511Z,10.60
2019-05-19T17:18:22.669Z,16.60
2019-05-19T17:19:48.095Z,19.43
2019-05-19T17:21:14.295Z,10.50
2019-05-19T17:22:39.825Z,21.33
2019-05-19T17:24:06.064Z,16.63
2019-05-19T17:25:31.662Z,24.10
2019-05-19T17:26:57.721Z,20.33
2019-05-19T17:28:23.153Z,19.50
2019-05-19T17:29:49.186Z,16.17
2019-05-19T17:31:14.633Z,19.20
2019-05-19T17:32:40.903Z,15.03
2019-05-19T17:34:06.573Z,22.67
2019-05-19T17:35:32.699Z,23.50
2019-05-19T17:36:58.239Z,17.53
2019-05-19T17:38:24.291Z,22.53
2019-05-19T17:39:49.789Z,24.03
2019-05-19T17:41:15.811Z,19.50
2019-05-19T17:42:49.770Z,23.67
2019-05-19T17:44:15.900Z,21.53
2019-05-19T17:45:41.381Z,29.77
2019-05-19T17:47:07.523Z,22.60
2019-05-19T17:48:32.964Z,22.77
2019-05-19T17:49:59.043Z,26.70
2019-05-19T17:51:24.530Z,21.37
2019-05-19T17:52:50.677Z,21.00
2019-05-19T17:54:16.197Z,19.77
2019-05-19T17:55:43.139Z,17.03
2019-05-19T17:57:08.689Z,22.30
2019-05-19T17:58:35.119Z,28.47
2019-05-19T18:00:02.223Z,22.80
2019-05-19T18:01:28.267Z,20.57
2019-05-19T18:02:53.732Z,18.10
2019-05-19T18:04:19.758Z,31.63
2019-05-19T18:05:45.174Z,22.03
2019-05-19T18:07:11.353Z,20.80
2019-05-19T18:08:36.841Z,33.37
2019-05-19T18:10:02.908Z,27.77
2019-05-19T18:11:28.437Z,22.60
2019-05-19T18:12:54.487Z,28.10
2019-05-19T18:14:19.953Z,31.03
2019-05-19T18:15:46.101Z,27.00
2019-05-19T18:17:11.635Z,18.20
2019-05-19T18:18:37.696Z,30.37
2019-05-19T18:20:03.198Z,25.77
2019-05-19T18:21:29.291Z,23.27
2019-05-19T18:22:54.792Z,22.13
2019-05-19T18:24:20.817Z,30.50
2019-05-19T18:25:46.304Z,23.30
2019-05-19T18:27:12.475Z,24.50
2019-05-19T18:28:38.156Z,29.60
2019-05-19T18:30:04.279Z,24.50
2019-05-19T18:31:31.235Z,29.67
2019-05-19T18:32:57.443Z,39.67
2019-05-19T18:34:23.764Z,21.97
2019-05-19T18:35:49.947Z,27.83
2019-05-19T18:37:17.884Z,27.93
2019-05-19T18:38:43.929Z,19.40